createdAt,value
2018-09-26T00:00:14.715Z,91.51
2018-09-26T00:02:44.749Z,92.44
2018-09-26T00:05:13.781Z,92.54
2018-09-26T00:07:42.877Z,93.81
2018-09-26T00:10:11.909Z,92.50
2018-09-26T00:12:40.950Z,93.82
2018-09-26T00:15:09.985Z,92.18
2018-09-26T00:17:39.034Z,89.70
2018-09-26T00:20:08.070Z,93.45
2018-09-26T00:22:37.109Z,94.20
2018-09-26T00:25:07.156Z,91.90
2018-09-26T00:27:37.158Z,91.20
2018-09-26T00:30:06.202Z,90.65
2018-09-26T00:32:35.293Z,89.64
2018-09-26T00:35:04.324Z,90.26
2018-09-26T00:37:33.352Z,89.88
2018-09-26T00:40:02.394Z,90.45
2018-09-26T00:42:31.420Z,86.65
2018-09-26T00:45:00.497Z,87.94
2018-09-26T00:47:29.521Z,89.11
2018-09-26T00:49:58.554Z,90.47
2018-09-26T00:52:27.578Z,87.85
2018-09-26T00:57:33.320Z,86.33
2018-09-26T01:00:02.357Z,88.24
2018-09-26T01:02:31.405Z,92.64
2018-09-26T01:05:00.436Z,93.79
2018-09-26T01:07:29.456Z,91.19
2018-09-26T01:09:58.504Z,91.02
2018-09-26T01:12:27.534Z,90.75
2018-09-26T01:14:56.576Z,89.24
2018-09-26T01:17:27.556Z,90.89
2018-09-26T01:19:57.613Z,92.69
2018-09-26T01:25:02.372Z,90.68
2018-09-26T01:27:32.358Z,88.89
2018-09-26T01:30:01.423Z,90.57
2018-09-26T01:32:31.469Z,88.90
2018-09-26T01:35:00.504Z,88.82
2018-09-26T01:37:29.528Z,93.79
2018-09-26T01:39:58.590Z,92.84
2018-09-26T01:42:27.616Z,93.31
2018-09-26T01:44:58.716Z,94.24
2018-09-26T01:47:27.745Z,89.85
2018-09-26T01:49:56.863Z,92.57
2018-09-26T01:52:26.830Z,92.80
2018-09-26T01:54:55.868Z,94.68
2018-09-26T01:57:24.888Z,96.53
2018-09-26T01:59:53.940Z,94.17
2018-09-26T02:02:26.508Z,90.85
2018-09-26T02:04:55.702Z,92.25
2018-09-26T02:14:09.840Z,93.92
2018-09-26T02:16:42.932Z,91.48
2018-09-26T02:19:15.828Z,90.77
2018-09-26T02:21:44.868Z,94.55
2018-09-26T02:24:13.906Z,93.76
2018-09-26T02:26:42.933Z,93.59
2018-09-26T02:29:11.976Z,93.27
2018-09-26T02:31:41.020Z,94.67
2018-09-26T02:34:10.052Z,94.04
2018-09-26T02:36:39.104Z,95.81
2018-09-26T02:39:08.151Z,94.85
2018-09-26T02:41:37.172Z,95.59
2018-09-26T02:44:06.301Z,95.97
2018-09-26T02:46:35.472Z,96.98
2018-09-26T02:49:04.503Z,94.49
2018-09-26T02:51:33.542Z,93.96
2018-09-26T02:54:02.572Z,96.25
2018-09-26T02:56:31.620Z,95.18
2018-09-26T02:59:01.626Z,94.82
2018-09-26T03:01:30.657Z,94.97
2018-09-26T03:03:59.704Z,95.63
2018-09-26T03:06:28.736Z,97.07
2018-09-26T03:11:33.501Z,96.66
2018-09-26T03:14:04.509Z,96.60
2018-09-26T03:16:35.552Z,96.65
2018-09-26T03:19:04.598Z,95.88
2018-09-26T03:21:33.676Z,95.90
2018-09-26T03:24:02.774Z,96.19
2018-09-26T03:26:31.778Z,93.28
2018-09-26T03:29:01.779Z,93.10
2018-09-26T03:31:30.845Z,94.31
2018-09-26T03:33:59.888Z,94.84
2018-09-26T03:36:29.060Z,95.21
2018-09-26T03:41:34.996Z,94.86
2018-09-26T03:44:04.036Z,95.37
2018-09-26T03:46:33.081Z,96.33
2018-09-26T03:49:03.067Z,98.15
2018-09-26T03:51:33.062Z,97.64
2018-09-26T03:54:02.184Z,98.64
2018-09-26T03:56:31.164Z,97.24
2018-09-26T03:59:00.203Z,97.17
2018-09-26T04:01:30.559Z,96.85
2018-09-26T04:03:59.611Z,99.00
2018-09-26T04:06:28.645Z,97.62
2018-09-26T04:08:57.692Z,98.76
2018-09-26T04:11:26.717Z,99.04
2018-09-26T04:16:31.498Z,98.79
2018-09-26T04:19:00.552Z,96.92
2018-09-26T04:21:31.586Z,98.27
2018-09-26T04:24:00.624Z,98.33
2018-09-26T04:26:30.665Z,96.44
2018-09-26T04:28:59.667Z,97.65
2018-09-26T04:31:28.658Z,97.46
2018-09-26T04:33:57.725Z,97.54
2018-09-26T04:36:27.728Z,96.01
2018-09-26T04:38:56.860Z,94.82
2018-09-26T04:41:25.801Z,97.17
2018-09-26T04:43:54.844Z,97.33
2018-09-26T04:46:23.905Z,97.68
2018-09-26T04:48:52.949Z,97.15
2018-09-26T04:51:23.965Z,98.14
2018-09-26T04:53:53.902Z,97.51
2018-09-26T04:58:58.674Z,97.65
2018-09-26T05:01:28.645Z,95.88
2018-09-26T05:03:57.705Z,95.22
2018-09-26T05:06:26.742Z,96.80
2018-09-26T05:08:55.788Z,96.81
2018-09-26T05:11:24.801Z,96.88
2018-09-26T05:13:53.837Z,97.76
2018-09-26T05:16:22.868Z,99.47
2018-09-26T05:18:51.893Z,98.83
2018-09-26T05:21:20.940Z,99.01
2018-09-26T05:23:50.004Z,100.00
2018-09-26T05:26:19.180Z,98.40
2018-09-26T05:28:50.171Z,98.68
2018-09-26T05:31:19.228Z,98.20
2018-09-26T05:33:48.270Z,98.30
2018-09-26T05:36:18.333Z,96.24
2018-09-26T05:41:24.577Z,95.79
2018-09-26T05:43:53.604Z,98.17
2018-09-26T05:46:23.609Z,98.96
2018-09-26T05:48:52.778Z,98.90
2018-09-26T05:51:21.819Z,99.57
2018-09-26T05:56:39.969Z,98.86
2018-09-26T05:59:23.309Z,98.68
2018-09-26T06:02:03.378Z,95.69
2018-09-26T06:04:44.553Z,93.69
2018-09-26T06:07:13.732Z,94.03
2018-09-26T06:12:18.500Z,93.39
2018-09-26T06:14:49.912Z,93.12
2018-09-26T06:17:18.945Z,93.75
2018-09-26T06:19:51.712Z,92.97
2018-09-26T06:22:20.751Z,92.81
2018-09-26T06:24:50.852Z,92.61
2018-09-26T06:27:20.728Z,93.42
2018-09-26T06:29:49.750Z,92.18
2018-09-26T06:32:18.788Z,91.83
2018-09-26T06:34:47.826Z,92.06
2018-09-26T06:37:16.868Z,91.34
2018-09-26T06:39:45.937Z,91.97
2018-09-26T06:42:15.026Z,91.76
2018-09-26T06:44:46.062Z,92.96
2018-09-26T06:47:18.807Z,94.04
2018-09-26T06:49:47.857Z,93.41
2018-09-26T06:52:16.887Z,91.90
2018-09-26T06:54:45.925Z,92.63
2018-09-26T06:57:14.970Z,91.13
2018-09-26T06:59:44.016Z,91.05
2018-09-26T07:04:48.743Z,89.60
2018-09-26T07:07:17.822Z,90.91
2018-09-26T07:09:46.859Z,90.40
2018-09-26T07:14:51.581Z,88.61
2018-09-26T07:17:20.897Z,87.29
2018-09-26T07:19:49.961Z,86.87
2018-09-26T07:22:19.138Z,85.38
2018-09-26T07:24:48.147Z,83.70
2018-09-26T07:27:19.084Z,83.31
2018-09-26T07:32:28.416Z,85.06
2018-09-26T07:37:33.217Z,83.95
2018-09-26T07:40:02.248Z,84.08
2018-09-26T07:45:07.089Z,80.92
2018-09-26T07:47:36.125Z,81.59
2018-09-26T07:50:05.156Z,80.97
2018-09-26T07:52:34.180Z,80.06
2018-09-26T07:55:03.217Z,78.47
2018-09-26T07:57:32.237Z,79.77
2018-09-26T08:00:01.330Z,80.97
2018-09-26T08:05:06.073Z,77.87
2018-09-26T08:07:37.114Z,77.07
2018-09-26T08:10:06.148Z,75.07
2018-09-26T08:12:36.293Z,74.66
2018-09-26T08:15:05.338Z,72.69
2018-09-26T08:17:34.371Z,74.20
2018-09-26T08:20:03.401Z,72.23
2018-09-26T08:22:32.465Z,73.50
2018-09-26T08:25:01.512Z,72.40
2018-09-26T08:27:30.581Z,68.66
2018-09-26T08:32:36.354Z,68.15
2018-09-26T08:35:05.400Z,64.52
2018-09-26T08:37:34.448Z,65.54
2018-09-26T08:42:39.210Z,62.53
2018-09-26T08:45:10.229Z,62.81
2018-09-26T08:47:39.523Z,62.52
2018-09-26T08:50:08.567Z,57.41
2018-09-26T08:52:37.821Z,54.36
2018-09-26T08:55:06.881Z,47.95
2018-09-26T08:57:35.988Z,43.21
2018-09-26T09:00:05.049Z,49.54
2018-09-26T09:05:09.908Z,44.48
2018-09-26T09:07:38.956Z,32.03
2018-09-26T09:12:43.756Z,39.62
2018-09-26T09:15:12.814Z,37.06
2018-09-26T09:17:44.000Z,38.45
2018-09-26T09:20:13.072Z,37.17
2018-09-26T09:22:42.058Z,40.89
2018-09-26T09:25:11.117Z,31.85
2018-09-26T09:30:15.964Z,29.51
2018-09-26T09:32:45.008Z,31.90
2018-09-26T09:35:15.130Z,30.27
2018-09-26T09:37:44.176Z,31.27
2018-09-26T09:40:13.264Z,30.03
2018-09-26T09:42:42.392Z,30.70
2018-09-26T09:45:11.468Z,29.85
2018-09-26T09:47:40.566Z,30.21
2018-09-26T09:50:09.651Z,23.76
2018-09-26T09:52:38.665Z,26.77
2018-09-26T09:55:07.723Z,27.11
2018-09-26T09:57:36.784Z,29.10
2018-09-26T10:00:05.838Z,27.07
2018-09-26T10:02:34.985Z,26.38
2018-09-26T10:05:04.126Z,21.97
2018-09-26T10:07:33.184Z,25.42
2018-09-26T10:10:02.454Z,27.96
2018-09-26T10:12:31.517Z,26.53
2018-09-26T10:15:00.566Z,25.15
2018-09-26T10:17:29.685Z,25.11
2018-09-26T10:19:58.695Z,22.35
2018-09-26T10:22:27.733Z,25.64
2018-09-26T10:24:57.728Z,23.92
2018-09-26T10:30:02.664Z,23.32
2018-09-26T10:32:31.740Z,24.24
2018-09-26T10:37:41.754Z,22.05
2018-09-26T10:40:10.829Z,21.01
2018-09-26T10:45:15.757Z,24.19
2018-09-26T10:47:44.805Z,23.64
2018-09-26T10:50:13.872Z,24.22
2018-09-26T10:55:22.535Z,21.06
2018-09-26T11:00:27.441Z,21.80
2018-09-26T11:02:56.514Z,22.53
2018-09-26T11:05:25.558Z,20.87
2018-09-26T11:07:58.781Z,20.87
2018-09-26T11:10:27.969Z,20.06
2018-09-26T11:12:56.893Z,20.77
2018-09-26T11:15:26.041Z,21.28
2018-09-26T11:20:30.777Z,19.31
2018-09-26T11:23:00.761Z,20.81
2018-09-26T11:25:29.833Z,20.00
2018-09-26T11:27:58.877Z,20.52
2018-09-26T11:30:27.987Z,18.93
2018-09-26T11:32:58.998Z,19.49
2018-09-26T11:35:28.048Z,22.46
2018-09-26T11:37:57.111Z,19.51
2018-09-26T11:40:26.189Z,18.99
2018-09-26T11:45:31.096Z,22.77
2018-09-26T11:50:41.212Z,18.05
2018-09-26T11:53:13.794Z,18.26
2018-09-26T11:55:43.573Z,19.24
2018-09-26T11:58:12.633Z,20.25
2018-09-26T12:00:41.680Z,17.69
2018-09-26T12:05:46.636Z,17.04
2018-09-26T12:08:15.695Z,16.37
2018-09-26T12:10:44.741Z,19.36
2018-09-26T12:13:13.791Z,20.75
2018-09-26T12:15:44.795Z,19.09
2018-09-26T12:18:13.925Z,18.68
2018-09-26T12:20:42.913Z,18.61
2018-09-26T12:23:15.673Z,21.11
2018-09-26T12:25:44.727Z,20.10
2018-09-26T12:30:49.682Z,18.81
2018-09-26T12:35:54.545Z,19.51
2018-09-26T12:38:23.607Z,18.22
2018-09-26T12:40:52.819Z,17.49
2018-09-26T12:43:21.857Z,16.90
2018-09-26T12:45:50.919Z,18.19
2018-09-26T12:48:20.037Z,17.25
2018-09-26T12:50:49.033Z,16.74
2018-09-26T12:55:53.884Z,19.06
2018-09-26T12:58:24.208Z,21.16
2018-09-26T13:00:55.207Z,22.40
2018-09-26T13:03:24.259Z,18.71
2018-09-26T13:08:29.195Z,16.36
2018-09-26T13:13:33.959Z,15.86
2018-09-26T13:18:43.722Z,17.02
2018-09-26T13:21:12.765Z,19.68
2018-09-26T13:23:43.832Z,18.51
2018-09-26T13:26:12.872Z,21.34
2018-09-26T13:31:18.061Z,17.59
2018-09-26T13:33:47.108Z,18.49
2018-09-26T13:36:16.203Z,17.67
2018-09-26T13:38:45.217Z,18.75
2018-09-26T13:43:50.050Z,19.18
2018-09-26T13:46:19.240Z,18.59
2018-09-26T13:48:48.165Z,18.86
2018-09-26T13:53:57.043Z,17.97
2018-09-26T13:56:26.086Z,19.26
2018-09-26T13:58:55.146Z,19.90
2018-09-26T14:06:35.805Z,19.69
2018-09-26T14:09:04.892Z,19.40
2018-09-26T14:11:33.963Z,19.91
2018-09-26T14:14:03.028Z,19.72
2018-09-26T14:16:33.989Z,18.76
2018-09-26T14:19:03.045Z,19.03
2018-09-26T14:21:32.102Z,19.11
2018-09-26T14:24:01.142Z,18.13
2018-09-26T14:26:30.191Z,18.62
2018-09-26T14:29:03.702Z,18.67
2018-09-26T14:31:33.712Z,18.62
2018-09-26T14:34:02.761Z,18.73
2018-09-26T14:36:31.866Z,19.56
2018-09-26T14:39:01.012Z,18.33
2018-09-26T14:41:29.983Z,18.89
2018-09-26T14:44:00.953Z,19.63
2018-09-26T14:46:29.993Z,19.43
2018-09-26T14:48:59.041Z,23.21
2018-09-26T14:51:28.115Z,24.36
2018-09-26T14:53:57.214Z,22.12
2018-09-26T14:56:26.307Z,20.90
2018-09-26T14:58:56.248Z,21.05
2018-09-26T15:01:26.393Z,26.59
2018-09-26T15:03:55.446Z,26.43
2018-09-26T15:06:24.811Z,26.90
2018-09-26T15:08:53.789Z,27.58
2018-09-26T15:11:22.838Z,27.63
2018-09-26T15:13:51.885Z,29.20
2018-09-26T15:16:22.004Z,29.32
2018-09-26T15:18:52.960Z,28.79
2018-09-26T15:21:22.001Z,29.20
2018-09-26T15:23:51.149Z,29.70
2018-09-26T15:28:55.961Z,30.53
2018-09-26T15:31:25.216Z,30.85
2018-09-26T15:36:30.061Z,31.79
2018-09-26T15:38:59.115Z,31.83
2018-09-26T15:41:29.243Z,34.14
2018-09-26T15:43:58.221Z,32.95
2018-09-26T15:46:27.269Z,32.56
2018-09-26T15:48:56.488Z,32.87
2018-09-26T15:54:01.315Z,34.20
2018-09-26T15:56:30.360Z,33.67
2018-09-26T16:01:35.229Z,36.27
2018-09-26T16:04:04.370Z,37.87
2018-09-26T16:06:33.519Z,37.36
2018-09-26T16:09:02.580Z,37.96
2018-09-26T16:11:31.630Z,38.30
2018-09-26T16:14:00.767Z,39.25
2018-09-26T16:16:29.806Z,40.98
2018-09-26T16:18:59.056Z,42.40
2018-09-26T16:21:28.105Z,43.58
2018-09-26T16:23:57.161Z,45.40
2018-09-26T16:26:26.267Z,44.51
2018-09-26T16:28:55.305Z,46.19
2018-09-26T16:34:00.098Z,47.89
2018-09-26T16:36:29.130Z,55.60
2018-09-26T16:39:00.233Z,52.14
2018-09-26T16:41:29.220Z,57.28
2018-09-26T16:43:58.260Z,51.87
2018-09-26T16:46:27.374Z,62.09
2018-09-26T16:48:56.395Z,63.11
2018-09-26T16:51:26.526Z,58.70
2018-09-26T17:01:43.961Z,70.61
2018-09-26T17:04:13.133Z,74.73
2018-09-26T17:06:42.177Z,76.46
2018-09-26T17:09:15.160Z,75.65
2018-09-26T17:11:47.338Z,77.52
2018-09-26T17:14:16.421Z,79.50
2018-09-26T17:16:45.422Z,77.45
2018-09-26T17:19:14.470Z,75.19
2018-09-26T17:21:43.524Z,78.29
2018-09-26T17:24:12.583Z,79.81
2018-09-26T17:26:41.623Z,82.83
2018-09-26T17:29:13.201Z,86.21
2018-09-26T17:31:42.225Z,86.16
2018-09-26T17:34:11.291Z,86.42
2018-09-26T17:36:40.324Z,72.93
2018-09-26T17:39:09.370Z,83.84
2018-09-26T17:41:41.652Z,82.42
2018-09-26T17:44:10.676Z,80.96
2018-09-26T17:46:39.734Z,79.59
2018-09-26T17:49:08.803Z,77.20
2018-09-26T17:51:37.831Z,78.44
2018-09-26T17:54:07.957Z,77.39
2018-09-26T17:56:40.325Z,75.32
2018-09-26T17:59:09.425Z,78.55
2018-09-26T18:01:38.465Z,78.80
2018-09-26T18:06:43.704Z,79.96
2018-09-26T18:09:12.793Z,83.59
2018-09-26T18:11:41.801Z,78.49
2018-09-26T18:14:10.848Z,89.59
2018-09-26T18:16:39.886Z,93.31
2018-09-26T18:19:08.926Z,93.16
2018-09-26T18:21:38.044Z,88.84
2018-09-26T18:26:42.884Z,88.22
2018-09-26T18:29:11.925Z,92.04
2018-09-26T18:31:40.973Z,86.56
2018-09-26T18:34:10.014Z,88.62
2018-09-26T18:36:39.087Z,83.71
2018-09-26T18:41:47.374Z,87.42
2018-09-26T18:44:16.444Z,86.35
2018-09-26T18:46:45.528Z,87.29
2018-09-26T18:49:26.401Z,80.70
2018-09-26T18:51:57.062Z,80.08
2018-09-26T18:54:27.061Z,89.78
2018-09-26T18:56:56.148Z,92.29
2018-09-26T18:59:25.256Z,93.62
2018-09-26T19:01:54.220Z,93.96
2018-09-26T19:04:23.272Z,95.60
2018-09-26T19:09:28.058Z,90.90
2018-09-26T19:11:59.113Z,94.04
2018-09-26T19:14:28.097Z,91.87
2018-09-26T19:16:57.152Z,93.08
2018-09-26T19:19:26.198Z,94.09
2018-09-26T19:21:56.866Z,94.91
2018-09-26T19:24:25.904Z,98.06
2018-09-26T19:26:54.979Z,92.23
2018-09-26T19:29:23.983Z,97.65
2018-09-26T19:31:53.054Z,98.86
2018-09-26T19:34:24.020Z,99.47
2018-09-26T19:36:53.061Z,99.12
2018-09-26T19:39:23.040Z,97.25
2018-09-26T19:41:52.181Z,97.09
2018-09-26T19:44:25.138Z,97.47
2018-09-26T19:46:57.007Z,97.21
2018-09-26T19:52:02.036Z,90.54
2018-09-26T19:54:32.018Z,90.48
2018-09-26T19:57:01.943Z,96.79
2018-09-26T20:02:06.742Z,97.01
2018-09-26T20:04:35.727Z,94.45
2018-09-26T20:09:40.529Z,94.82
2018-09-26T20:12:09.570Z,94.31
2018-09-26T20:17:14.378Z,93.14
2018-09-26T20:19:43.449Z,93.81
2018-09-26T20:22:12.465Z,94.01
2018-09-26T20:24:43.474Z,93.73
2018-09-26T20:27:12.665Z,94.24
2018-09-26T20:29:42.694Z,94.64
2018-09-26T20:32:11.532Z,94.13
2018-09-26T20:34:40.568Z,93.35
2018-09-26T20:37:09.675Z,92.84
2018-09-26T20:39:38.636Z,92.74
2018-09-26T20:42:07.693Z,91.59
2018-09-26T20:44:37.685Z,92.78
2018-09-26T20:49:43.415Z,91.61
2018-09-26T20:52:12.492Z,91.64
2018-09-26T20:54:41.525Z,91.57
2018-09-26T20:59:46.764Z,90.16
2018-09-26T21:02:15.952Z,90.74
2018-09-26T21:04:44.993Z,90.89
2018-09-26T21:09:50.765Z,90.12
2018-09-26T21:14:55.506Z,92.07
2018-09-26T21:17:25.493Z,90.45
2018-09-26T21:19:54.516Z,89.81
2018-09-26T21:22:24.499Z,90.56
2018-09-26T21:24:53.547Z,89.84
2018-09-26T21:29:58.273Z,89.97
2018-09-26T21:32:30.602Z,88.05
2018-09-26T21:37:39.049Z,89.22
2018-09-26T21:42:43.921Z,90.91
2018-09-26T21:45:12.991Z,91.35
2018-09-26T21:47:42.102Z,91.74
2018-09-26T21:50:11.167Z,92.17
2018-09-26T21:52:40.215Z,93.88
2018-09-26T21:55:09.229Z,94.27
2018-09-26T21:57:39.208Z,95.13
2018-09-26T22:08:18.700Z,94.12
2018-09-26T22:10:47.865Z,94.73
2018-09-26T22:15:52.671Z,94.62
2018-09-26T22:18:21.816Z,95.11
2018-09-26T22:23:26.677Z,92.31
2018-09-26T22:25:55.798Z,94.20
2018-09-26T22:28:24.952Z,95.04
2018-09-26T22:30:55.268Z,95.66
2018-09-26T22:33:24.394Z,95.49
2018-09-26T22:35:53.493Z,95.68
2018-09-26T22:40:58.305Z,95.27
2018-09-26T22:43:28.397Z,94.78
2018-09-26T22:45:57.668Z,95.19
2018-09-26T22:48:26.800Z,96.34
2018-09-26T22:50:56.993Z,97.97
2018-09-26T22:53:26.106Z,97.23
2018-09-26T22:58:30.923Z,96.16
2018-09-26T23:01:00.001Z,96.30
2018-09-26T23:03:31.091Z,95.04
2018-09-26T23:06:01.152Z,95.42
2018-09-26T23:08:30.244Z,96.58
2018-09-26T23:10:59.345Z,97.06
2018-09-26T23:13:28.436Z,96.08
2018-09-26T23:15:57.563Z,96.44
2018-09-26T23:18:27.636Z,97.00
2018-09-26T23:23:32.441Z,96.52
2018-09-26T23:26:01.531Z,97.64
2018-09-26T23:31:06.391Z,98.61
2018-09-26T23:33:35.591Z,98.33
2018-09-26T23:36:09.141Z,98.69
2018-09-26T23:41:13.949Z,99.41
2018-09-26T23:43:43.047Z,99.57
2018-09-26T23:46:12.132Z,99.20
2018-09-26T23:53:52.739Z,100.00
2018-09-26T23:58:57.583Z,99.85
